Time;durP1;ratioP1;P1;durP2;ratioP2;P2;SDS_P1;SDS_P2;PMS_P1;PMS_P2;Temp;Humidity;BMP_temperature;BMP_pressure;BME280_temperature;BME280_humidity;BME280_pressure;Samples;Min_cycle;Max_cycle;Signal;HPM_P1;HPM_P2
2022/02/25 00:00:58;;;;;;;6.10;2.43;;;;;;;0.22;100.00;101451.16;2017782;29;20039;-60
2022/02/25 00:01:59;;;;;;;7.53;2.47;;;;;;;0.22;100.00;101453.72;2010746;29;20037;-61
2022/02/25 00:02:59;;;;;;;5.10;2.33;;;;;;;0.20;100.00;101457.97;2010754;29;20029;-61
2022/02/25 00:03:59;;;;;;;6.00;2.67;;;;;;;0.17;100.00;101463.06;2010677;29;20030;-62
2022/02/25 00:05:00;;;;;;;5.07;2.43;;;;;;;0.20;100.00;101457.97;2010691;29;20026;-63
2022/02/25 00:06:00;;;;;;;3.93;1.97;;;;;;;0.24;100.00;101459.72;2010619;29;20033;-61
2022/02/25 00:07:01;;;;;;;6.00;2.40;;;;;;;0.21;100.00;101459.69;2010698;29;20029;-61
2022/02/25 00:08:01;;;;;;;7.43;3.00;;;;;;;0.21;100.00;101461.41;2010119;29;20405;-62
2022/02/25 00:09:05;;;;;;;3.58;1.98;;;;;;;0.19;100.00;101466.53;2010116;29;20122;-62
2022/02/25 00:10:06;;;;;;;3.85;2.03;;;;;;;0.20;100.00;101457.97;2017688;29;20034;-63
2022/02/25 00:11:06;;;;;;;2.92;1.52;;;;;;;0.18;100.00;101469.94;2017550;29;20075;-61
2022/02/25 00:12:07;;;;;;;6.10;1.93;;;;;;;0.20;100.00;101468.25;2010670;29;20049;-62
2022/02/25 00:13:07;;;;;;;7.23;2.13;;;;;;;0.21;100.00;101464.81;2010708;29;20033;-61
2022/02/25 00:14:07;;;;;;;3.47;1.83;;;;;;;0.23;100.00;101468.28;2010614;29;20286;-61
2022/02/25 00:15:08;;;;;;;6.00;2.50;;;;;;;0.28;100.00;101463.19;2010716;29;20037;-60
2022/02/25 00:16:08;;;;;;;6.88;2.50;;;;;;;0.30;100.00;101468.34;2010627;29;20362;-60
2022/02/25 00:17:08;;;;;;;5.63;2.00;;;;;;;0.34;100.00;101464.97;2017640;29;20063;-60
2022/02/25 00:18:08;;;;;;;5.20;2.20;;;;;;;0.34;100.00;101464.97;2017591;29;20031;-60
2022/02/25 00:19:09;;;;;;;5.20;1.93;;;;;;;0.39;100.00;101468.44;2010668;29;20025;-61
2022/02/25 00:20:11;;;;;;;4.97;1.60;;;;;;;0.41;100.00;101468.47;2010588;29;20025;-61
2022/02/25 00:21:12;;;;;;;4.90;1.90;;;;;;;0.39;100.00;101473.56;2017604;29;20032;-61
2022/02/25 00:22:12;;;;;;;4.33;2.70;;;;;;;0.36;100.00;101463.25;2017642;29;20132;-61
2022/02/25 00:23:12;;;;;;;5.63;2.17;;;;;;;0.35;100.00;101477.81;2010534;29;20030;-61
2022/02/25 00:24:13;;;;;;;3.20;1.77;;;;;;;0.33;100.00;101468.38;2010581;29;20029;-62
2022/02/25 00:25:13;;;;;;;4.77;1.60;;;;;;;0.35;100.00;101477.81;2010591;29;20094;-61
2022/02/25 00:26:14;;;;;;;5.33;1.97;;;;;;;0.38;100.00;101477.00;2017596;29;20108;-60
2022/02/25 00:27:14;;;;;;;2.37;1.40;;;;;;;0.41;100.00;101481.31;2017698;29;20277;-61
2022/02/25 00:28:15;;;;;;;3.20;1.63;;;;;;;0.44;100.00;101484.75;2010620;29;20074;-60
2022/02/25 00:29:15;;;;;;;3.88;2.05;;;;;;;0.41;100.00;101484.72;2009943;29;20120;-61
2022/02/25 00:30:16;;;;;;;6.87;2.30;;;;;;;0.35;100.00;101492.38;2009965;29;20384;-61
2022/02/25 00:31:16;;;;;;;4.60;1.85;;;;;;;0.31;100.00;101490.63;2010527;29;20025;-60
2022/02/25 00:32:16;;;;;;;7.77;2.40;;;;;;;0.34;100.00;101494.06;2010502;29;20089;-61
2022/02/25 00:33:17;;;;;;;5.07;1.43;;;;;;;0.38;100.00;101493.25;2010492;29;20041;-60
2022/02/25 00:34:17;;;;;;;2.47;1.33;;;;;;;0.41;100.00;101494.13;2010469;29;20364;-61
2022/02/25 00:35:17;;;;;;;8.03;2.20;;;;;;;0.40;100.00;101500.97;2017465;29;20563;-62
2022/02/25 00:36:17;;;;;;;4.53;1.70;;;;;;;0.38;100.00;101492.41;2009765;29;20025;-61
2022/02/25 00:37:18;;;;;;;7.30;1.97;;;;;;;0.35;100.00;101497.50;2009969;29;20041;-61
2022/02/25 00:38:19;;;;;;;6.17;1.97;;;;;;;0.40;100.00;101506.09;2009825;29;20026;-61
2022/02/25 00:39:19;;;;;;;5.30;1.90;;;;;;;0.40;100.00;101508.69;2010002;29;20033;-61
2022/02/25 00:40:21;;;;;;;3.33;1.60;;;;;;;0.41;100.00;101505.25;2010562;29;20062;-61
2022/02/25 00:41:21;;;;;;;4.43;1.88;;;;;;;0.40;100.00;101513.81;2010537;29;20030;-61
2022/02/25 00:42:22;;;;;;;8.13;2.13;;;;;;;0.42;100.00;101508.69;2010472;29;20029;-59
2022/02/25 00:43:22;;;;;;;5.43;1.73;;;;;;;0.42;100.00;101512.13;2010482;29;20033;-60
2022/02/25 00:44:22;;;;;;;6.90;2.17;;;;;;;0.49;100.00;101511.34;2009761;29;20365;-61
2022/02/25 00:45:23;;;;;;;3.27;2.00;;;;;;;0.50;100.00;101518.22;2009959;29;20365;-60
2022/02/25 00:46:23;;;;;;;5.30;2.40;;;;;;;0.50;100.00;101518.22;2010456;29;20057;-61
2022/02/25 00:47:23;;;;;;;12.37;3.10;;;;;;;0.52;100.00;101515.66;2017384;29;20037;-61
2022/02/25 00:48:23;;;;;;;4.13;1.87;;;;;;;0.53;100.00;101521.63;2017474;29;20133;-61
2022/02/25 00:49:24;;;;;;;3.60;1.73;;;;;;;0.52;100.00;101518.22;2009766;29;20029;-62
2022/02/25 00:50:24;;;;;;;4.93;1.67;;;;;;;0.62;100.00;101522.59;2009885;29;20097;-61
2022/02/25 00:51:25;;;;;;;3.58;1.85;;;;;;;0.68;100.00;101516.66;2010455;29;20045;-61
2022/02/25 00:52:25;;;;;;;5.23;2.00;;;;;;;0.70;100.00;101520.13;2010480;29;20116;-62
2022/02/25 00:53:25;;;;;;;7.87;1.87;;;;;;;0.70;100.00;101522.69;2010477;29;20028;-61
2022/02/25 00:54:26;;;;;;;3.90;2.50;;;;;;;0.70;100.00;101525.25;2010428;29;20081;-60
2022/02/25 00:55:26;;;;;;;4.83;1.63;;;;;;;0.74;100.00;101524.44;2010376;29;20030;-61
2022/02/25 00:56:26;;;;;;;5.50;2.37;;;;;;;0.72;100.00;101515.84;2010427;29;20033;-60
2022/02/25 00:57:26;;;;;;;4.37;1.93;;;;;;;0.74;100.00;101521.88;2010481;29;20030;-62
2022/02/25 00:58:27;;;;;;;9.23;2.07;;;;;;;0.79;100.00;101521.06;2010396;29;20029;-61
2022/02/25 00:59:27;;;;;;;5.97;2.23;;;;;;;0.85;100.00;101515.94;2010334;29;20034;-61
2022/02/25 01:00:28;;;;;;;5.23;1.87;;;;;;;0.87;100.00;101521.97;2010389;29;20026;-61
2022/02/25 01:01:28;;;;;;;8.38;2.40;;;;;;;0.88;100.00;101518.56;2010372;29;20108;-60
2022/02/25 01:02:28;;;;;;;6.23;1.27;;;;;;;0.90;100.00;101527.16;2017551;29;20029;-60
2022/02/25 01:03:28;;;;;;;5.20;1.70;;;;;;;0.89;100.00;101520.28;2017500;29;20036;-60
2022/02/25 01:04:29;;;;;;;6.80;2.40;;;;;;;0.90;100.00;101527.16;2010514;29;20029;-61
2022/02/25 01:05:29;;;;;;;5.17;1.90;;;;;;;0.91;100.00;101521.16;2010408;29;20033;-61
2022/02/25 01:06:29;;;;;;;3.53;1.70;;;;;;;0.92;100.00;101529.75;2010418;29;20361;-61
2022/02/25 01:07:30;;;;;;;5.67;2.20;;;;;;;0.89;100.00;101526.28;2010398;29;20048;-62
2022/02/25 01:08:30;;;;;;;3.57;1.63;;;;;;;0.89;100.00;101521.13;2010456;29;20022;-61
2022/02/25 01:09:30;;;;;;;6.23;1.50;;;;;;;0.90;100.00;101522.84;2017506;29;20376;-60
2022/02/25 01:10:30;;;;;;;5.07;1.40;;;;;;;0.90;100.00;101522.00;2017496;29;20025;-60
2022/02/25 01:11:31;;;;;;;11.13;3.43;;;;;;;0.88;100.00;101523.69;2010356;29;20022;-60
2022/02/25 01:12:32;;;;;;;3.17;1.33;;;;;;;0.85;100.00;101521.09;2010446;29;20424;-60
2022/02/25 01:13:32;;;;;;;4.18;1.40;;;;;;;0.86;100.00;101525.41;2010384;29;20575;-61
2022/02/25 01:14:32;;;;;;;4.60;2.07;;;;;;;0.82;100.00;101523.66;2010408;29;20120;-59
2022/02/25 01:15:33;;;;;;;4.90;2.30;;;;;;;0.82;100.00;101523.66;2010368;29;20021;-62
2022/02/25 01:16:34;;;;;;;4.80;1.67;;;;;;;0.79;100.00;101524.50;2010410;29;20029;-63
2022/02/25 01:17:34;;;;;;;8.47;1.50;;;;;;;0.74;100.00;101516.72;2010377;29;20032;-60
2022/02/25 01:18:34;;;;;;;4.70;2.00;;;;;;;0.71;100.00;101526.09;2010333;29;20060;-60
2022/02/25 01:19:35;;;;;;;5.00;2.23;;;;;;;0.71;100.00;101528.66;2010326;29;20025;-61
2022/02/25 01:20:35;;;;;;;7.77;2.67;;;;;;;0.66;100.00;101523.50;2017389;29;20488;-62
2022/02/25 01:21:35;;;;;;;6.43;1.97;;;;;;;0.69;100.00;101526.13;2017424;29;20041;-61
2022/02/25 01:22:36;;;;;;;8.03;1.93;;;;;;;0.66;100.00;101526.06;2009968;29;20018;-61
2022/02/25 01:23:36;;;;;;;8.43;2.03;;;;;;;0.67;100.00;101532.94;2011195;29;20460;-61
2022/02/25 01:24:36;;;;;;;4.30;1.80;;;;;;;0.66;100.00;101532.91;2011773;29;20435;-62
2022/02/25 01:25:37;;;;;;;5.37;1.83;;;;;;;0.63;100.00;101533.75;2011899;29;20105;-62
2022/02/25 01:26:38;;;;;;;6.30;2.83;;;;;;;0.66;100.00;101527.78;2018931;29;20025;-61
2022/02/25 01:27:38;;;;;;;4.17;1.67;;;;;;;0.66;100.00;101531.22;2019020;29;20028;-62
2022/02/25 01:28:39;;;;;;;6.18;1.83;;;;;;;0.64;100.00;101525.19;2011968;29;20063;-62
2022/02/25 01:29:39;;;;;;;8.60;2.43;;;;;;;0.67;100.00;101529.47;2011808;29;20022;-61
2022/02/25 01:30:39;;;;;;;6.50;1.97;;;;;;;0.72;100.00;101527.84;2011825;29;20022;-61
2022/02/25 01:31:43;;;;;;;2.93;1.70;;;;;;;0.74;100.00;101532.16;2011796;29;20449;-61
2022/02/25 01:32:43;;;;;;;4.70;1.90;;;;;;;0.71;100.00;101526.09;2011779;29;20396;-61
2022/02/25 01:33:43;;;;;;;5.23;2.00;;;;;;;0.67;100.00;101517.50;2011753;29;20050;-61
2022/02/25 01:34:44;;;;;;;4.73;1.40;;;;;;;0.64;100.00;101522.63;2011756;29;20052;-60
2022/02/25 01:35:44;;;;;;;7.27;2.10;;;;;;;0.65;100.00;101521.75;2011759;29;20022;-62
2022/02/25 01:36:45;;;;;;;3.93;1.50;;;;;;;0.74;100.00;101524.44;2011678;29;20391;-61
2022/02/25 01:37:45;;;;;;;5.00;1.80;;;;;;;0.79;100.00;101526.19;2011788;29;20025;-61
2022/02/25 01:38:45;;;;;;;7.53;1.87;;;;;;;0.73;100.00;101525.28;2011682;29;20037;-61
2022/02/25 01:39:45;;;;;;;3.83;1.63;;;;;;;0.69;100.00;101523.53;2011724;29;20032;-62
2022/02/25 01:40:46;;;;;;;13.40;1.60;;;;;;;0.68;100.00;101521.78;2011742;29;20445;-60
2022/02/25 01:41:46;;;;;;;4.87;2.10;;;;;;;0.67;100.00;101521.78;2011709;29;20029;-60
2022/02/25 01:42:49;;;;;;;5.53;2.10;;;;;;;0.63;100.00;101523.47;2011719;29;20026;-59
2022/02/25 01:43:49;;;;;;;4.07;1.52;;;;;;;0.64;100.00;101514.91;2011704;29;20022;-59
2022/02/25 01:44:49;;;;;;;8.77;2.37;;;;;;;0.67;100.00;101507.22;2011653;29;20029;-61
2022/02/25 01:45:50;;;;;;;2.73;1.90;;;;;;;0.67;100.00;101514.94;2011694;29;20034;-61
2022/02/25 01:46:55;;;;;;;6.97;2.10;;;;;;;0.65;100.00;101516.63;2011691;29;20476;-61
2022/02/25 01:47:56;;;;;;;8.30;2.25;;;;;;;0.64;100.00;101520.03;2011516;29;20376;-61
2022/02/25 01:48:56;;;;;;;3.73;1.40;;;;;;;0.62;100.00;101521.75;2011616;29;20075;-61
2022/02/25 01:49:56;;;;;;;4.17;1.60;;;;;;;0.58;100.00;101520.84;2011597;29;20040;-61
2022/02/25 01:50:57;;;;;;;8.03;2.40;;;;;;;0.57;100.00;101518.25;2018659;29;20044;-60
2022/02/25 01:52:00;;;;;;;6.57;1.70;;;;;;;0.55;100.00;101525.94;2018669;29;20036;-59
2022/02/25 01:53:06;;;;;;;9.65;2.08;;;;;;;0.53;100.00;101524.22;2011654;29;20025;-59
2022/02/25 01:54:07;;;;;;;6.22;1.80;;;;;;;0.52;100.00;101520.81;2011567;29;20440;-60
2022/02/25 01:55:08;;;;;;;4.28;1.52;;;;;;;0.55;100.00;101514.81;2011579;29;20041;-60
2022/02/25 01:56:08;;;;;;;3.58;1.80;;;;;;;0.54;100.00;101518.25;2018621;29;20395;-61
2022/02/25 01:57:11;;;;;;;6.57;1.90;;;;;;;0.53;100.00;101519.94;2018757;29;20032;-61
2022/02/25 01:58:11;;;;;;;8.13;1.80;;;;;;;0.48;100.00;101524.19;2011517;29;20068;-61
2022/02/25 01:59:12;;;;;;;5.33;2.10;;;;;;;0.44;100.00;101522.44;2011567;29;20116;-62
2022/02/25 02:00:13;;;;;;;6.85;1.65;;;;;;;0.47;100.00;101530.13;2011502;29;20066;-60
2022/02/25 02:01:13;;;;;;;10.25;1.92;;;;;;;0.48;100.00;101522.47;2011612;29;20033;-61
2022/02/25 02:02:13;;;;;;;7.70;1.90;;;;;;;0.48;100.00;101524.19;2011531;29;20021;-61
2022/02/25 02:03:14;;;;;;;6.60;2.87;;;;;;;0.49;100.00;101531.03;2011570;29;20026;-60
2022/02/25 02:04:14;;;;;;;4.03;1.87;;;;;;;0.48;100.00;101525.03;2011572;29;20494;-59
2022/02/25 02:05:14;;;;;;;4.50;1.63;;;;;;;0.50;100.00;101527.63;2011615;29;20076;-61
2022/02/25 02:06:15;;;;;;;3.77;1.57;;;;;;;0.47;100.00;101525.00;2011566;29;20081;-60
2022/02/25 02:07:15;;;;;;;9.43;2.53;;;;;;;0.49;100.00;101521.63;2011528;29;20025;-60
2022/02/25 02:08:15;;;;;;;5.03;2.03;;;;;;;0.50;100.00;101527.63;2018562;29;20021;-60
2022/02/25 02:09:16;;;;;;;7.23;2.33;;;;;;;0.48;100.00;101527.59;2018637;29;20507;-61
2022/02/25 02:10:16;;;;;;;7.67;2.37;;;;;;;0.48;100.00;101532.72;2011550;29;20030;-60
2022/02/25 02:11:28;;;;;;;6.23;2.13;;;;;;;0.54;100.00;101528.53;2011615;29;20049;-61
2022/02/25 02:12:28;;;;;;;4.97;2.15;;;;;;;0.56;100.00;101527.69;2010751;29;20033;-61
2022/02/25 02:13:29;;;;;;;8.40;2.17;;;;;;;0.58;100.00;101530.28;2010979;29;20063;-60
2022/02/25 02:14:29;;;;;;;4.70;1.80;;;;;;;0.61;100.00;101525.16;2011484;29;20033;-61
2022/02/25 02:15:29;;;;;;;4.63;2.00;;;;;;;0.62;100.00;101527.72;2011500;29;20096;-61
2022/02/25 02:16:30;;;;;;;6.07;1.83;;;;;;;0.60;100.00;101518.28;2018504;29;20422;-60
2022/02/25 02:17:33;;;;;;;5.63;1.80;;;;;;;0.61;100.00;101530.28;2018484;29;20028;-60
2022/02/25 02:18:33;;;;;;;9.18;2.13;;;;;;;0.60;100.00;101526.88;2011347;29;20034;-59
2022/02/25 02:19:33;;;;;;;5.87;2.37;;;;;;;0.60;100.00;101520.88;2011421;29;20145;-61
2022/02/25 02:20:34;;;;;;;6.80;1.73;;;;;;;0.62;100.00;101525.16;2018374;29;20113;-61
2022/02/25 02:21:39;;;;;;;6.63;1.93;;;;;;;0.63;100.00;101524.34;2018485;29;20029;-62
2022/02/25 02:22:39;;;;;;;9.02;1.85;;;;;;;0.65;100.00;101521.75;2011397;29;20045;-60
2022/02/25 02:23:40;;;;;;;4.83;2.40;;;;;;;0.59;100.00;101516.56;2011337;29;20471;-61
2022/02/25 02:24:40;;;;;;;7.70;1.90;;;;;;;0.53;100.00;101521.63;2011286;29;20112;-59
2022/02/25 02:25:40;;;;;;;3.10;1.63;;;;;;;0.53;100.00;101521.63;2011375;29;20021;-60
2022/02/25 02:26:43;;;;;;;7.30;1.20;;;;;;;0.59;100.00;101532.88;2011410;29;20017;-59
2022/02/25 02:29:02;;;;;;;6.80;1.77;;;;;;;0.60;100.00;101526.00;2011420;29;20119;-59
2022/02/25 02:30:03;;;;;;;4.27;1.73;;;;;;;0.60;100.00;101526.00;2018421;29;20499;-60
2022/02/25 02:31:03;;;;;;;11.05;2.33;;;;;;;0.56;100.00;101514.84;2018385;29;20029;-60
2022/02/25 02:32:04;;;;;;;5.57;2.07;;;;;;;0.50;100.00;101520.78;2011314;29;20176;-60
2022/02/25 02:33:04;;;;;;;3.22;1.48;;;;;;;0.49;100.00;101519.06;2011341;29;20056;-60
2022/02/25 02:34:05;;;;;;;7.10;1.97;;;;;;;0.55;100.00;101519.97;2018226;29;20052;-60
2022/02/25 02:35:06;;;;;;;5.03;1.58;;;;;;;0.59;100.00;101522.59;2018345;29;20025;-59
2022/02/25 02:36:08;;;;;;;4.72;2.10;;;;;;;0.61;100.00;101520.88;2011277;29;20399;-59
2022/02/25 02:37:10;;;;;;;3.13;1.75;;;;;;;0.60;100.00;101523.44;2011211;29;20061;-60
2022/02/25 02:38:11;;;;;;;6.80;2.20;;;;;;;0.58;100.00;101525.16;2011178;29;20696;-61
2022/02/25 02:39:11;;;;;;;11.68;2.35;;;;;;;0.59;100.00;101522.59;2010594;29;20056;-59
2022/02/25 02:40:12;;;;;;;5.07;2.15;;;;;;;0.61;100.00;101520.00;2010696;29;20038;-60
2022/02/25 02:41:12;;;;;;;4.10;1.80;;;;;;;0.56;100.00;101521.69;2011278;29;20453;-60
2022/02/25 02:42:12;;;;;;;5.17;2.43;;;;;;;0.54;100.00;101515.69;2011220;29;20036;-58
2022/02/25 02:43:13;;;;;;;6.80;1.50;;;;;;;0.54;100.00;101523.38;2011230;29;20170;-59
2022/02/25 02:44:13;;;;;;;4.83;2.10;;;;;;;0.53;100.00;101517.38;2011255;29;20025;-60
2022/02/25 02:45:15;;;;;;;9.63;1.90;;;;;;;0.53;100.00;101531.91;2011256;29;20394;-61
2022/02/25 02:46:15;;;;;;;5.68;1.67;;;;;;;0.48;100.00;101524.19;2011215;29;20376;-60
2022/02/25 02:47:16;;;;;;;6.13;1.52;;;;;;;0.45;100.00;101524.97;2011237;29;20086;-61
2022/02/25 02:48:16;;;;;;;6.17;1.77;;;;;;;0.42;100.00;101524.97;2011052;29;20091;-61
2022/02/25 02:49:16;;;;;;;11.13;2.50;;;;;;;0.40;100.00;101521.50;2011145;29;20104;-59
2022/02/25 02:50:17;;;;;;;4.47;2.13;;;;;;;0.45;100.00;101524.97;2011180;29;20286;-60
2022/02/25 02:51:17;;;;;;;7.22;1.80;;;;;;;0.51;100.00;101527.63;2018163;29;20082;-61
2022/02/25 02:52:17;;;;;;;11.10;3.47;;;;;;;0.56;100.00;101526.81;2018260;29;20029;-60
2022/02/25 02:53:18;;;;;;;6.90;1.70;;;;;;;0.59;100.00;101517.44;2011155;29;20369;-59
2022/02/25 02:54:18;;;;;;;5.10;1.33;;;;;;;0.61;100.00;101530.28;2011254;29;20064;-60
2022/02/25 02:55:18;;;;;;;4.13;1.60;;;;;;;0.60;100.00;101524.31;2011138;29;20032;-60
2022/02/25 02:56:18;;;;;;;8.17;1.87;;;;;;;0.62;100.00;101524.31;2011203;29;20480;-61
2022/02/25 02:57:21;;;;;;;6.90;2.17;;;;;;;0.60;100.00;101520.88;2011138;29;20029;-60
2022/02/25 02:58:21;;;;;;;10.00;2.60;;;;;;;0.59;100.00;101532.88;2011095;29;20040;-60
2022/02/25 02:59:21;;;;;;;7.60;1.90;;;;;;;0.59;100.00;101521.72;2018100;29;20035;-61
2022/02/25 03:00:22;;;;;;;5.57;1.93;;;;;;;0.53;100.00;101527.66;2018196;29;20461;-60
2022/02/25 03:01:27;;;;;;;4.53;2.17;;;;;;;0.51;100.00;101530.19;2011091;29;20034;-60
2022/02/25 03:02:27;;;;;;;6.70;2.15;;;;;;;0.51;100.00;101534.47;2011038;29;20032;-60
2022/02/25 03:03:27;;;;;;;5.53;1.37;;;;;;;0.47;100.00;101522.44;2011081;29;20030;-60
2022/02/25 03:04:28;;;;;;;5.00;1.47;;;;;;;0.45;100.00;101519.84;2011110;29;20033;-59
2022/02/25 03:05:28;;;;;;;4.23;1.13;;;;;;;0.45;100.00;101529.28;2010417;29;20448;-59
2022/02/25 03:06:28;;;;;;;5.27;1.70;;;;;;;0.42;100.00;101524.97;2010515;29;20112;-59
2022/02/25 03:07:29;;;;;;;8.03;2.33;;;;;;;0.41;100.00;101523.22;2018060;29;20032;-60
2022/02/25 03:08:29;;;;;;;4.63;1.43;;;;;;;0.45;100.00;101530.13;2018167;29;20025;-60
2022/02/25 03:09:29;;;;;;;12.17;2.00;;;;;;;0.44;100.00;101525.00;2011084;29;20113;-61
2022/02/25 03:10:31;;;;;;;5.20;1.50;;;;;;;0.43;100.00;101530.97;2011074;29;20037;-59
2022/02/25 03:11:31;;;;;;;6.60;1.92;;;;;;;0.39;100.00;101522.38;2011038;29;20054;-61
2022/02/25 03:12:32;;;;;;;8.77;2.40;;;;;;;0.36;100.00;101523.19;2011024;29;20030;-60
2022/02/25 03:13:33;;;;;;;10.57;2.97;;;;;;;0.35;100.00;101525.75;2010922;29;20029;-60
2022/02/25 03:14:34;;;;;;;9.43;2.73;;;;;;;0.31;100.00;101519.69;2011040;29;20025;-59
2022/02/25 03:15:35;;;;;;;5.65;1.80;;;;;;;0.32;100.00;101528.28;2010979;29;20036;-60
2022/02/25 03:16:35;;;;;;;7.10;1.70;;;;;;;0.31;100.00;101521.44;2010968;29;20021;-60
2022/02/25 03:17:37;;;;;;;7.23;1.63;;;;;;;0.30;100.00;101524.84;2010971;29;20028;-59
2022/02/25 03:18:37;;;;;;;12.95;2.50;;;;;;;0.31;100.00;101526.56;2010935;29;20116;-60
2022/02/25 03:19:38;;;;;;;5.03;2.00;;;;;;;0.29;100.00;101523.09;2010980;29;20078;-60
2022/02/25 03:20:38;;;;;;;6.82;1.90;;;;;;;0.30;100.00;101519.72;2010969;29;20108;-60
2022/02/25 03:21:38;;;;;;;5.13;1.50;;;;;;;0.29;100.00;101523.97;2011002;29;20060;-61
2022/02/25 03:22:39;;;;;;;4.57;1.30;;;;;;;0.27;100.00;101525.66;2010985;29;20498;-60
2022/02/25 03:23:39;;;;;;;3.45;1.50;;;;;;;0.24;100.00;101523.91;2010946;29;20064;-60
2022/02/25 03:24:40;;;;;;;5.77;1.33;;;;;;;0.25;100.00;101517.09;2010871;29;20052;-60
2022/02/25 03:25:40;;;;;;;4.77;1.63;;;;;;;0.25;100.00;101514.50;2010843;29;20025;-61
2022/02/25 03:26:41;;;;;;;12.18;2.50;;;;;;;0.23;100.00;101524.75;2010222;29;20041;-61
2022/02/25 03:27:42;;;;;;;6.17;1.90;;;;;;;0.24;100.00;101520.50;2010271;29;20096;-62
2022/02/25 03:28:42;;;;;;;5.63;1.88;;;;;;;0.23;100.00;101509.34;2010930;29;20028;-61
2022/02/25 03:29:42;;;;;;;6.03;3.37;;;;;;;0.24;100.00;101521.34;2010867;29;20067;-60
2022/02/25 03:30:43;;;;;;;9.37;2.20;;;;;;;0.24;100.00;101516.22;2010949;29;20490;-61
2022/02/25 03:31:43;;;;;;;9.33;2.80;;;;;;;0.26;100.00;101518.78;2010833;29;20476;-60
2022/02/25 03:32:44;;;;;;;10.03;2.40;;;;;;;0.25;100.00;101520.50;2010879;29;20033;-60
2022/02/25 03:33:44;;;;;;;6.80;1.58;;;;;;;0.24;100.00;101521.34;2010858;29;20032;-61
2022/02/25 03:34:45;;;;;;;7.83;2.27;;;;;;;0.27;100.00;101519.66;2010830;29;20432;-61
2022/02/25 03:35:45;;;;;;;5.18;1.70;;;;;;;0.29;100.00;101520.53;2010884;29;20039;-62
2022/02/25 03:36:46;;;;;;;6.77;2.43;;;;;;;0.28;100.00;101519.69;2010161;29;20112;-59
2022/02/25 03:37:46;;;;;;;10.30;1.95;;;;;;;0.32;100.00;101518.00;2010133;29;20127;-59
2022/02/25 03:38:46;;;;;;;5.63;1.73;;;;;;;0.36;100.00;101514.63;2010821;29;20025;-59
2022/02/25 03:39:47;;;;;;;7.60;1.83;;;;;;;0.40;100.00;101529.22;2010814;29;20021;-60
2022/02/25 03:40:48;;;;;;;8.40;2.03;;;;;;;0.40;100.00;101520.69;2010097;29;20033;-59
2022/02/25 03:41:48;;;;;;;9.90;1.97;;;;;;;0.40;100.00;101516.38;2010095;29;20482;-59
2022/02/25 03:42:48;;;;;;;8.97;1.73;;;;;;;0.42;100.00;101509.56;2017814;29;20029;-60
2022/02/25 03:43:48;;;;;;;3.77;1.27;;;;;;;0.39;100.00;101506.97;2010831;29;20498;-60
2022/02/25 03:44:50;;;;;;;5.03;1.43;;;;;;;0.34;100.00;101512.03;2010820;29;20146;-60
2022/02/25 03:45:50;;;;;;;8.77;1.88;;;;;;;0.32;100.00;101512.88;2010312;29;20037;-59
2022/02/25 03:46:50;;;;;;;6.37;1.17;;;;;;;0.31;100.00;101517.13;2010779;29;20515;-60
2022/02/25 03:47:51;;;;;;;12.20;2.20;;;;;;;0.29;100.00;101523.97;2010593;29;20067;-60
2022/02/25 03:48:51;;;;;;;8.83;2.63;;;;;;;0.31;100.00;101519.69;2010785;29;20064;-61
2022/02/25 03:49:51;;;;;;;7.23;2.60;;;;;;;0.32;100.00;101513.75;2010647;29;20044;-60
2022/02/25 03:50:51;;;;;;;13.07;1.93;;;;;;;0.37;100.00;101517.22;2010788;29;20115;-60
2022/02/25 03:51:52;;;;;;;6.37;1.47;;;;;;;0.36;100.00;101520.63;2010719;29;20033;-60
2022/02/25 03:52:53;;;;;;;5.85;1.98;;;;;;;0.38;100.00;101525.78;2010754;29;20440;-60
2022/02/25 03:53:53;;;;;;;9.90;1.63;;;;;;;0.37;100.00;101516.34;2010749;29;20324;-60
2022/02/25 03:54:53;;;;;;;7.87;2.10;;;;;;;0.33;100.00;101519.72;2010718;29;20112;-60
2022/02/25 03:55:54;;;;;;;10.80;2.03;;;;;;;0.29;100.00;101517.97;2010730;29;20033;-61
2022/02/25 03:56:54;;;;;;;8.32;1.95;;;;;;;0.30;100.00;101509.44;2017849;29;20040;-60
2022/02/25 03:57:55;;;;;;;6.77;1.30;;;;;;;0.36;100.00;101523.19;2017690;29;20033;-60
2022/02/25 03:58:55;;;;;;;5.80;1.23;;;;;;;0.36;100.00;101519.75;2010716;29;20125;-60
2022/02/25 03:59:55;;;;;;;8.93;2.60;;;;;;;0.38;100.00;101518.09;2010706;29;20036;-60
2022/02/25 04:00:56;;;;;;;6.93;2.20;;;;;;;0.47;100.00;101523.31;2010678;29;20053;-60
2022/02/25 04:01:56;;;;;;;13.93;3.43;;;;;;;0.45;100.00;101522.41;2009889;29;20073;-60
2022/02/25 04:02:57;;;;;;;6.07;1.43;;;;;;;0.44;100.00;101525.84;2010103;29;20029;-59
2022/02/25 04:03:57;;;;;;;6.80;1.90;;;;;;;0.42;100.00;101519.84;2010655;29;20100;-60
2022/02/25 04:04:57;;;;;;;5.93;2.20;;;;;;;0.40;100.00;101513.81;2010647;29;20112;-61
2022/02/25 04:05:58;;;;;;;6.97;1.27;;;;;;;0.38;100.00;101524.06;2010633;29;20033;-59
2022/02/25 04:06:58;;;;;;;5.37;1.63;;;;;;;0.41;100.00;101518.09;2010771;29;20128;-61
2022/02/25 04:07:58;;;;;;;5.60;2.33;;;;;;;0.39;100.00;101524.94;2010733;29;20108;-60
2022/02/25 04:09:00;;;;;;;7.53;1.70;;;;;;;0.40;100.00;101523.25;2010642;29;20029;-60
2022/02/25 04:10:00;;;;;;;;;;;;;;;0.42;100.00;101522.41;2010361;29;20116;-60
2022/02/25 04:11:00;;;;;;;11.38;1.45;;;;;;;0.47;100.00;101518.16;2010088;29;19964;-60
2022/02/25 04:12:02;;;;;;;7.67;1.80;;;;;;;0.46;100.00;101511.31;2009901;29;20025;-61
2022/02/25 04:13:04;;;;;;;5.50;1.58;;;;;;;0.42;100.00;101504.44;2010034;29;20581;-61
2022/02/25 04:14:05;;;;;;;7.32;2.08;;;;;;;0.43;100.00;101508.72;2010414;29;20479;-60
2022/02/25 04:15:07;;;;;;;11.63;2.45;;;;;;;0.45;100.00;101514.72;2010586;29;20052;-60
2022/02/25 04:16:08;;;;;;;7.78;1.63;;;;;;;0.42;100.00;101519.84;2010536;29;20061;-61
2022/02/25 04:17:08;;;;;;;9.65;2.13;;;;;;;0.45;100.00;101509.56;2010485;29;20119;-60
2022/02/25 04:18:10;;;;;;;6.35;1.67;;;;;;;0.44;100.00;101518.13;2010466;29;20025;-61
2022/02/25 04:19:10;;;;;;;;;;;;;;;0.46;100.00;101510.44;2010912;29;20468;-61
2022/02/25 04:20:11;;;;;;;5.07;1.10;;;;;;;0.43;100.00;101512.97;2009816;29;19912;-60
2022/02/25 04:21:13;;;;;;;8.60;1.30;;;;;;;0.43;100.00;101510.41;2009946;29;20508;-60
2022/02/25 04:22:14;;;;;;;12.30;2.97;;;;;;;0.43;100.00;101506.16;2010630;29;20048;-60
2022/02/25 04:23:14;;;;;;;4.87;1.27;;;;;;;0.45;100.00;101519.00;2010572;29;20438;-60
2022/02/25 04:24:15;;;;;;;8.90;2.50;;;;;;;0.43;100.00;101511.28;2010529;29;20161;-61
2022/02/25 04:25:15;;;;;;;7.65;1.77;;;;;;;0.46;100.00;101510.44;2010585;29;20030;-59
2022/02/25 04:26:15;;;;;;;11.90;1.60;;;;;;;0.49;100.00;101519.06;2010447;29;20033;-60
2022/02/25 04:27:16;;;;;;;7.27;1.70;;;;;;;0.48;100.00;101504.47;2010613;29;20037;-60
2022/02/25 04:28:17;;;;;;;10.23;4.28;;;;;;;0.48;100.00;101509.63;2010501;29;20040;-60
2022/02/25 04:29:18;;;;;;;11.57;2.08;;;;;;;0.49;100.00;101515.63;2010509;29;20066;-60
2022/02/25 04:30:18;;;;;;;8.27;1.35;;;;;;;0.48;100.00;101509.63;2010503;29;20101;-60
2022/02/25 04:31:19;;;;;;;6.00;2.30;;;;;;;0.46;100.00;101511.31;2010558;29;20029;-61
2022/02/25 04:32:19;;;;;;;9.48;2.13;;;;;;;0.44;100.00;101510.44;2010629;29;20089;-60
2022/02/25 04:33:19;;;;;;;10.47;1.70;;;;;;;0.50;100.00;101509.63;2010524;29;20094;-59
2022/02/25 04:34:20;;;;;;;6.70;1.40;;;;;;;0.55;100.00;101510.53;2017550;29;20415;-60
2022/02/25 04:35:21;;;;;;;6.23;1.50;;;;;;;0.53;100.00;101516.50;2017627;29;20025;-60
2022/02/25 04:36:21;;;;;;;6.22;1.20;;;;;;;0.50;100.00;101518.22;2010555;29;20395;-60
2022/02/25 04:37:22;;;;;;;6.57;1.45;;;;;;;0.51;100.00;101509.66;2010457;29;20166;-60
2022/02/25 04:38:22;;;;;;;7.23;1.50;;;;;;;0.46;100.00;101516.47;2010398;29;20026;-61
2022/02/25 04:39:22;;;;;;;8.80;1.93;;;;;;;0.47;100.00;101523.31;2010533;29;20033;-60
2022/02/25 04:40:23;;;;;;;7.17;2.10;;;;;;;0.50;100.00;101514.78;2010595;29;20037;-61
2022/02/25 04:41:23;;;;;;;12.18;2.42;;;;;;;0.49;100.00;101520.75;2010510;29;20057;-60
2022/02/25 04:42:26;;;;;;;12.13;2.40;;;;;;;0.49;100.00;101521.63;2010531;29;20061;-60
2022/02/25 04:43:27;;;;;;;6.38;1.95;;;;;;;0.47;100.00;101518.16;2010448;29;20049;-61